Time;durP1;ratioP1;P1;durP2;ratioP2;P2;SDS_P1;SDS_P2;PMS_P1;PMS_P2;Temp;Humidity;BMP_temperature;BMP_pressure;BME280_temperature;BME280_humidity;BME280_pressure;Samples;Min_cycle;Max_cycle;Signal;HPM_P1;HPM_P2
2023/05/13 00:01:46;;;;;;;3.80;3.50;;;13.50;99.90;;;;;;4949601;28;20208;-70
2023/05/13 00:04:12;;;;;;;4.70;4.30;;;13.70;99.90;;;;;;4950945;28;20188;-70
2023/05/13 00:06:37;;;;;;;4.00;3.57;;;13.30;99.90;;;;;;4950050;28;20215;-70
2023/05/13 00:09:03;;;;;;;3.93;3.53;;;13.30;99.90;;;;;;4945698;28;20264;-68
2023/05/13 00:11:29;;;;;;;3.70;3.40;;;13.10;99.90;;;;;;4932554;29;20216;-68
2023/05/13 00:13:56;;;;;;;3.33;3.13;;;13.40;99.90;;;;;;4931706;28;20196;-69
2023/05/13 00:16:24;;;;;;;4.28;3.88;;;13.60;99.90;;;;;;4947355;28;20239;-69
2023/05/13 00:18:50;;;;;;;4.07;3.67;;;13.40;99.90;;;;;;4948396;28;20459;-69
2023/05/13 00:21:16;;;;;;;4.20;3.90;;;13.50;99.90;;;;;;4948607;28;20260;-68
2023/05/13 00:23:41;;;;;;;3.77;3.47;;;13.30;99.90;;;;;;4949440;28;20209;-69
2023/05/13 00:26:07;;;;;;;4.17;3.87;;;13.60;99.90;;;;;;4930616;29;20205;-69
2023/05/13 00:28:32;;;;;;;3.77;3.47;;;13.40;99.90;;;;;;4946996;28;20250;-69
2023/05/13 00:30:58;;;;;;;4.27;3.97;;;13.60;99.90;;;;;;4931336;28;20216;-69
2023/05/13 00:33:24;;;;;;;4.30;4.00;;;13.60;99.90;;;;;;4934020;29;20188;-69
2023/05/13 00:35:49;;;;;;;4.10;3.80;;;13.50;99.90;;;;;;4949776;28;20268;-69
2023/05/13 00:38:15;;;;;;;4.10;3.80;;;13.50;99.90;;;;;;4930484;29;20185;-69
2023/05/13 00:40:41;;;;;;;4.30;3.90;;;13.60;99.90;;;;;;4933311;29;20209;-69
2023/05/13 00:43:07;;;;;;;3.60;3.30;;;13.90;99.90;;;;;;4933772;28;20192;-69
2023/05/13 00:45:35;;;;;;;4.10;3.60;;;13.80;99.90;;;;;;4948879;28;20209;-69
2023/05/13 00:48:04;;;;;;;4.13;3.75;;;13.50;99.90;;;;;;4933793;29;20983;-70
2023/05/13 00:50:29;;;;;;;3.65;3.35;;;13.50;99.90;;;;;;4933051;29;20682;-70
2023/05/13 00:52:56;;;;;;;3.80;3.50;;;13.40;99.90;;;;;;4944814;28;20193;-70
2023/05/13 00:55:22;;;;;;;3.90;3.35;;;13.50;99.90;;;;;;4949033;28;20251;-69
2023/05/13 00:57:47;;;;;;;3.93;3.53;;;13.40;99.90;;;;;;4948089;28;20654;-70
2023/05/13 01:00:13;;;;;;;3.97;3.67;;;13.40;99.90;;;;;;4944980;28;20327;-69
2023/05/13 01:03:00;;;;;;;3.75;3.45;;;13.50;99.90;;;;;;4946758;28;20239;-69
2023/05/13 01:05:29;;;;;;;4.32;4.03;;;13.30;99.90;;;;;;4927566;29;20244;-69
2023/05/13 01:08:06;;;;;;;4.90;3.45;;;13.40;99.90;;;;;;4931157;28;20196;-69
2023/05/13 01:10:53;;;;;;;4.25;3.85;;;13.60;99.90;;;;;;4947261;28;20555;-69
2023/05/13 01:13:23;;;;;;;4.07;3.67;;;13.30;99.90;;;;;;4946689;28;20252;-69
2023/05/13 01:15:58;;;;;;;4.78;3.80;;;13.50;99.90;;;;;;4943710;28;20180;-69
2023/05/13 01:18:30;;;;;;;4.45;3.60;;;13.50;99.90;;;;;;4947842;28;20185;-70
2023/05/13 01:20:57;;;;;;;6.32;3.85;;;13.50;99.90;;;;;;4926353;28;20585;-69
2023/05/13 01:23:23;;;;;;;3.90;3.53;;;13.50;99.90;;;;;;4949301;28;20590;-69
2023/05/13 01:25:49;;;;;;;4.32;3.92;;;13.30;99.90;;;;;;4945429;28;20203;-70
2023/05/13 01:28:15;;;;;;;3.60;3.30;;;13.50;99.90;;;;;;4948630;28;20181;-68
2023/05/13 01:30:40;;;;;;;4.03;3.73;;;13.10;99.90;;;;;;4948209;28;20210;-70
2023/05/13 01:33:06;;;;;;;5.60;4.30;;;13.00;99.90;;;;;;4942684;28;20265;-68
2023/05/13 01:35:32;;;;;;;4.00;3.70;;;12.90;99.90;;;;;;4931440;28;20193;-69
2023/05/13 01:38:00;;;;;;;4.15;3.75;;;12.90;99.90;;;;;;4946352;28;20246;-69
2023/05/13 01:40:26;;;;;;;5.13;3.70;;;13.10;99.90;;;;;;4948010;28;20217;-69
2023/05/13 01:42:52;;;;;;;3.70;3.47;;;12.80;99.90;;;;;;4948311;28;20192;-69
2023/05/13 01:45:17;;;;;;;5.20;3.93;;;12.80;99.90;;;;;;4926883;29;20823;-68
2023/05/13 01:47:43;;;;;;;4.80;3.37;;;13.00;99.90;;;;;;4930796;29;20682;-69
2023/05/13 01:50:09;;;;;;;4.00;3.60;;;12.80;99.90;;;;;;4948915;28;20283;-68
2023/05/13 01:52:34;;;;;;;5.57;3.47;;;12.80;99.90;;;;;;4930436;29;20188;-69
2023/05/13 01:55:00;;;;;;;4.70;4.10;;;12.70;99.90;;;;;;4948666;28;20468;-69
2023/05/13 01:57:26;;;;;;;3.60;3.30;;;12.70;99.90;;;;;;4948400;28;20207;-69
2023/05/13 01:59:52;;;;;;;4.05;3.75;;;12.50;99.90;;;;;;4929453;28;20979;-68
2023/05/13 02:02:18;;;;;;;4.03;3.63;;;12.60;99.90;;;;;;4948196;28;20268;-68
2023/05/13 02:04:43;;;;;;;3.90;3.60;;;12.30;99.90;;;;;;4948128;28;20208;-69
2023/05/13 02:07:09;;;;;;;4.13;3.47;;;12.30;99.90;;;;;;4943803;28;20743;-70
2023/05/13 02:09:34;;;;;;;4.73;3.90;;;12.60;99.90;;;;;;4947808;28;20195;-70
2023/05/13 02:12:00;;;;;;;3.90;3.60;;;12.90;99.90;;;;;;4947571;28;20211;-69
2023/05/13 02:14:26;;;;;;;3.80;3.50;;;12.40;99.90;;;;;;4930662;29;20216;-69
2023/05/13 02:16:51;;;;;;;3.80;3.50;;;12.60;99.90;;;;;;4945936;28;20241;-69
2023/05/13 02:19:18;;;;;;;4.03;3.73;;;12.40;99.90;;;;;;4948669;28;20212;-69
2023/05/13 02:21:44;;;;;;;4.43;3.47;;;12.50;99.90;;;;;;4942926;28;20219;-69
2023/05/13 02:24:10;;;;;;;3.60;3.30;;;12.20;99.90;;;;;;4947264;28;20178;-69
2023/05/13 02:26:35;;;;;;;3.93;3.63;;;12.50;99.90;;;;;;4925964;29;20384;-69
2023/05/13 02:29:01;;;;;;;4.10;3.70;;;12.30;99.90;;;;;;4930647;29;21132;-70
2023/05/13 02:31:26;;;;;;;4.13;3.73;;;12.50;99.90;;;;;;4947708;28;20228;-70
2023/05/13 02:33:53;;;;;;;4.57;4.20;;;12.40;99.90;;;;;;4947258;28;20640;-70
2023/05/13 02:36:18;;;;;;;3.97;3.67;;;12.50;99.90;;;;;;4927240;29;20200;-70
2023/05/13 02:38:44;;;;;;;4.43;3.17;;;12.30;99.90;;;;;;4929687;28;20354;-70
2023/05/13 02:41:10;;;;;;;3.97;3.67;;;12.50;99.90;;;;;;4945479;28;20619;-70
2023/05/13 02:43:35;;;;;;;4.17;3.77;;;12.30;99.90;;;;;;4947377;28;20200;-70
2023/05/13 02:46:02;;;;;;;4.15;3.53;;;12.40;99.90;;;;;;4947060;28;20676;-70
2023/05/13 02:48:28;;;;;;;3.50;3.20;;;12.70;99.90;;;;;;4931528;29;20177;-69
2023/05/13 02:50:54;;;;;;;3.80;3.50;;;12.40;99.90;;;;;;4946530;28;20221;-68
2023/05/13 02:53:19;;;;;;;3.80;3.50;;;12.20;99.90;;;;;;4929343;28;20677;-67
2023/05/13 02:55:45;;;;;;;3.50;3.20;;;12.50;99.90;;;;;;4946288;28;20192;-67
2023/05/13 02:58:11;;;;;;;4.00;3.70;;;12.50;99.90;;;;;;4951250;28;20206;-69
2023/05/13 03:00:37;;;;;;;3.70;3.40;;;12.30;99.90;;;;;;4949340;28;20207;-69
2023/05/13 03:03:02;;;;;;;3.70;3.30;;;12.30;99.90;;;;;;4934356;28;20561;-69
2023/05/13 03:05:28;;;;;;;3.83;3.53;;;12.30;99.90;;;;;;4952178;28;20212;-69
2023/05/13 03:07:54;;;;;;;4.07;3.20;;;12.00;99.90;;;;;;4950506;28;20276;-69
2023/05/13 03:10:19;;;;;;;4.07;3.67;;;12.40;99.90;;;;;;4934481;29;20717;-69
2023/05/13 03:12:45;;;;;;;3.93;3.53;;;12.20;99.90;;;;;;4933486;28;20185;-69
2023/05/13 03:15:11;;;;;;;4.20;3.80;;;12.20;99.90;;;;;;4950791;28;20191;-69
2023/05/13 03:17:36;;;;;;;4.30;3.63;;;12.10;99.90;;;;;;4946854;28;20473;-69
2023/05/13 03:20:02;;;;;;;3.83;3.53;;;12.50;99.90;;;;;;4934261;29;20239;-69
2023/05/13 03:22:28;;;;;;;3.97;3.57;;;12.20;99.90;;;;;;4948923;28;20665;-69
2023/05/13 03:24:53;;;;;;;4.07;3.67;;;12.30;99.90;;;;;;4950537;28;20212;-69
2023/05/13 03:27:19;;;;;;;3.57;3.00;;;12.30;99.90;;;;;;4951329;28;20635;-69
2023/05/13 03:29:45;;;;;;;4.27;3.87;;;12.50;99.90;;;;;;4951133;28;20685;-69
2023/05/13 03:32:10;;;;;;;3.10;2.90;;;12.20;99.90;;;;;;4951550;28;20444;-69
2023/05/13 03:34:36;;;;;;;4.20;3.53;;;11.70;99.90;;;;;;4950311;28;20212;-69
2023/05/13 03:37:02;;;;;;;3.53;3.20;;;12.10;99.90;;;;;;4946992;28;20189;-70
2023/05/13 03:39:28;;;;;;;3.55;3.25;;;12.30;99.90;;;;;;4933675;29;20639;-69
2023/05/13 03:41:54;;;;;;;4.03;3.70;;;12.10;99.90;;;;;;4948664;28;20204;-67
2023/05/13 03:44:19;;;;;;;4.90;4.50;;;12.30;99.90;;;;;;4949365;28;20183;-69
2023/05/13 03:46:45;;;;;;;4.33;3.93;;;12.20;99.90;;;;;;4950593;28;20637;-69
2023/05/13 03:49:11;;;;;;;4.97;4.47;;;11.90;99.90;;;;;;4948867;28;20220;-69
2023/05/13 03:51:36;;;;;;;5.97;4.80;;;12.00;99.90;;;;;;4933658;29;20614;-69
2023/05/13 03:54:02;;;;;;;3.80;3.50;;;12.30;99.90;;;;;;4930415;29;20196;-70
2023/05/13 03:56:28;;;;;;;3.70;3.40;;;12.20;99.90;;;;;;4947155;29;20676;-69
2023/05/13 03:58:53;;;;;;;5.00;4.50;;;12.00;99.90;;;;;;4948537;29;20213;-70
2023/05/13 04:01:20;;;;;;;3.80;3.40;;;12.20;99.90;;;;;;4948113;28;20526;-72
2023/05/13 04:03:46;;;;;;;3.88;3.47;;;12.10;99.90;;;;;;4939691;29;20249;-70
2023/05/13 04:06:13;;;;;;;4.23;3.70;;;11.90;99.90;;;;;;4949359;28;20216;-70
2023/05/13 04:08:39;;;;;;;3.97;3.55;;;11.80;99.90;;;;;;4932781;29;20567;-69
2023/05/13 04:11:05;;;;;;;3.90;3.47;;;12.10;99.90;;;;;;4931698;29;20238;-70
2023/05/13 04:13:34;;;;;;;3.70;3.40;;;12.00;99.90;;;;;;4949550;28;21388;-69
2023/05/13 04:16:00;;;;;;;3.78;3.50;;;12.00;99.90;;;;;;4929874;29;20188;-69
2023/05/13 04:18:28;;;;;;;4.43;4.00;;;12.20;99.90;;;;;;4950778;28;20781;-69
2023/05/13 04:20:53;;;;;;;3.63;3.38;;;12.20;99.90;;;;;;4949403;28;20474;-70
2023/05/13 04:23:19;;;;;;;3.53;3.23;;;12.20;99.90;;;;;;4947430;28;20192;-69
2023/05/13 04:25:51;;;;;;;4.93;2.97;;;12.30;99.90;;;;;;4930715;28;20270;-70
2023/05/13 04:28:17;;;;;;;3.95;3.65;;;12.20;99.90;;;;;;4948888;28;20646;-69
2023/05/13 04:30:42;;;;;;;3.72;3.38;;;12.20;99.90;;;;;;4946771;28;20211;-70
2023/05/13 04:33:08;;;;;;;3.43;3.23;;;12.40;99.90;;;;;;4931119;29;20319;-69
2023/05/13 04:35:34;;;;;;;3.77;3.47;;;12.20;99.90;;;;;;4932186;29;20532;-69
2023/05/13 04:37:59;;;;;;;3.70;3.40;;;12.30;99.90;;;;;;4931978;29;20189;-68
2023/05/13 04:40:25;;;;;;;3.23;2.93;;;12.30;99.90;;;;;;4931388;29;20212;-70
2023/05/13 04:42:53;;;;;;;4.30;3.60;;;12.30;99.90;;;;;;4932548;29;20218;-70
2023/05/13 04:45:19;;;;;;;3.75;3.00;;;12.20;99.90;;;;;;4945597;28;21072;-70
2023/05/13 04:47:45;;;;;;;4.20;3.90;;;12.30;99.90;;;;;;4948427;28;20197;-70
2023/05/13 04:50:11;;;;;;;5.35;4.85;;;12.20;99.90;;;;;;4950173;28;20204;-70
2023/05/13 04:52:37;;;;;;;4.00;3.70;;;12.20;99.90;;;;;;4948657;28;20191;-70
2023/05/13 04:55:02;;;;;;;3.73;3.43;;;12.30;99.90;;;;;;4948127;28;20227;-70
2023/05/13 04:57:28;;;;;;;3.80;3.40;;;12.30;99.90;;;;;;4949241;29;20185;-70
2023/05/13 04:59:53;;;;;;;4.53;4.13;;;12.30;99.90;;;;;;4948804;28;20697;-70
2023/05/13 05:02:19;;;;;;;4.50;4.10;;;12.30;99.90;;;;;;4931587;28;20185;-70
2023/05/13 05:04:45;;;;;;;4.03;3.70;;;12.50;99.90;;;;;;4947594;28;20220;-70
2023/05/13 05:07:10;;;;;;;4.10;3.80;;;12.20;99.90;;;;;;4932787;29;20275;-70
2023/05/13 05:09:36;;;;;;;4.40;4.00;;;12.20;99.90;;;;;;4949696;28;20184;-74
2023/05/13 05:12:01;;;;;;;3.77;3.30;;;12.30;99.90;;;;;;4931784;28;20207;-69
2023/05/13 05:14:27;;;;;;;3.63;3.30;;;12.30;99.90;;;;;;4930878;29;20279;-69
2023/05/13 05:16:52;;;;;;;4.07;3.67;;;12.20;99.90;;;;;;4947812;28;20414;-69
2023/05/13 05:19:22;;;;;;;3.53;3.23;;;12.20;99.90;;;;;;4948043;28;20281;-69
2023/05/13 05:21:51;;;;;;;4.38;3.70;;;12.30;99.90;;;;;;4946101;28;20204;-69
2023/05/13 05:24:17;;;;;;;3.70;3.35;;;12.70;99.90;;;;;;4948221;28;20179;-69
2023/05/13 05:26:43;;;;;;;4.30;3.97;;;12.50;99.90;;;;;;4947463;29;20758;-70
2023/05/13 05:29:09;;;;;;;4.17;3.80;;;12.50;99.90;;;;;;4932057;29;20192;-70
2023/05/13 05:31:34;;;;;;;4.17;3.77;;;12.70;99.90;;;;;;4948205;28;20227;-69
2023/05/13 05:34:00;;;;;;;3.50;3.20;;;12.60;99.90;;;;;;4933347;28;20192;-69
2023/05/13 05:36:27;;;;;;;3.60;3.03;;;12.50;99.90;;;;;;4930337;29;20672;-69
2023/05/13 05:38:53;;;;;;;4.22;3.88;;;12.40;99.90;;;;;;4931809;28;20471;-69
2023/05/13 05:41:18;;;;;;;4.17;3.80;;;12.50;99.90;;;;;;4946407;28;20696;-69
2023/05/13 05:43:44;;;;;;;6.53;3.60;;;12.40;99.90;;;;;;4933018;28;20231;-69
2023/05/13 05:46:10;;;;;;;3.20;3.00;;;12.20;99.90;;;;;;4948298;28;20271;-69
2023/05/13 05:48:35;;;;;;;3.93;3.50;;;12.30;99.90;;;;;;4927837;28;20180;-69
2023/05/13 05:51:01;;;;;;;3.80;3.50;;;12.50;99.90;;;;;;4929179;28;20286;-69
2023/05/13 05:53:27;;;;;;;5.77;3.40;;;12.60;99.90;;;;;;4948618;28;20211;-68
2023/05/13 05:55:52;;;;;;;4.17;3.87;;;12.50;99.90;;;;;;4931563;28;20219;-69
2023/05/13 05:58:18;;;;;;;4.70;3.30;;;12.60;99.90;;;;;;4929210;28;20191;-69
2023/05/13 06:00:44;;;;;;;4.60;3.63;;;12.40;99.90;;;;;;4926199;28;20729;-69
2023/05/13 06:03:10;;;;;;;4.53;3.85;;;12.60;99.90;;;;;;4947833;28;20448;-69
2023/05/13 06:05:35;;;;;;;3.70;3.40;;;12.90;99.90;;;;;;4942344;28;20654;-69
2023/05/13 06:08:01;;;;;;;3.70;3.40;;;12.40;99.90;;;;;;4943998;28;20189;-69
2023/05/13 06:10:27;;;;;;;4.13;3.73;;;12.60;99.90;;;;;;4949037;28;20232;-69
2023/05/13 06:12:53;;;;;;;4.47;4.13;;;12.80;99.90;;;;;;4946487;28;20267;-69
2023/05/13 06:15:18;;;;;;;4.93;4.00;;;12.70;99.90;;;;;;4947586;28;20567;-71
2023/05/13 06:17:44;;;;;;;3.97;3.67;;;12.70;99.90;;;;;;4929405;29;22121;-68
2023/05/13 06:20:10;;;;;;;4.23;3.83;;;12.90;99.90;;;;;;4943089;28;20219;-69
2023/05/13 06:22:36;;;;;;;7.03;6.30;;;13.00;99.90;;;;;;4945717;28;20196;-68
2023/05/13 06:25:01;;;;;;;4.07;3.77;;;13.00;99.90;;;;;;4945147;28;20240;-68
2023/05/13 06:27:27;;;;;;;4.13;3.83;;;12.80;99.90;;;;;;4947470;28;20188;-69
2023/05/13 06:29:53;;;;;;;3.90;3.60;;;12.70;99.90;;;;;;4947908;28;20642;-69
2023/05/13 06:32:18;;;;;;;3.97;3.60;;;12.80;99.90;;;;;;4949527;29;20231;-70
2023/05/13 06:34:45;;;;;;;4.10;3.80;;;12.80;99.90;;;;;;4946421;28;20217;-70
2023/05/13 06:37:12;;;;;;;4.97;3.85;;;12.80;99.90;;;;;;4932039;28;20664;-67
2023/05/13 06:39:38;;;;;;;4.80;3.92;;;12.90;99.90;;;;;;4950464;28;20220;-67
2023/05/13 06:42:04;;;;;;;4.70;3.90;;;12.90;99.90;;;;;;4951174;28;20207;-67
2023/05/13 06:44:30;;;;;;;4.30;3.90;;;13.00;99.90;;;;;;4946254;28;20609;-68
2023/05/13 06:46:56;;;;;;;4.40;4.00;;;12.90;99.90;;;;;;4950475;28;20196;-67
2023/05/13 06:49:23;;;;;;;4.33;3.93;;;13.20;99.90;;;;;;4931785;29;20181;-69
2023/05/13 06:51:49;;;;;;;5.95;4.13;;;13.30;99.90;;;;;;4948989;28;20243;-69
2023/05/13 06:54:15;;;;;;;4.47;4.07;;;13.30;99.90;;;;;;4949589;28;20220;-71
2023/05/13 06:56:41;;;;;;;5.67;5.17;;;13.20;99.90;;;;;;4932267;29;20513;-69
2023/05/13 06:59:06;;;;;;;4.53;4.20;;;13.20;99.90;;;;;;4947851;28;20215;-68
2023/05/13 07:01:32;;;;;;;4.80;4.43;;;13.30;99.90;;;;;;4949714;28;20208;-69
2023/05/13 07:03:58;;;;;;;4.40;4.00;;;13.20;99.90;;;;;;4933020;29;20216;-71
2023/05/13 07:06:23;;;;;;;5.20;4.70;;;13.30;99.90;;;;;;4931247;29;20208;-65
2023/05/13 07:08:49;;;;;;;4.80;3.77;;;13.20;99.90;;;;;;4950254;28;20184;-65
2023/05/13 07:11:14;;;;;;;5.00;4.47;;;13.20;99.90;;;;;;4951139;28;20240;-69
2023/05/13 07:13:40;;;;;;;5.00;4.50;;;13.70;99.90;;;;;;4950499;28;20188;-70
2023/05/13 07:16:06;;;;;;;4.70;4.40;;;13.80;99.90;;;;;;4947007;28;20267;-71
2023/05/13 07:18:31;;;;;;;4.40;4.00;;;13.60;99.90;;;;;;4929950;28;20817;-68
2023/05/13 07:20:57;;;;;;;4.90;4.40;;;13.80;99.90;;;;;;4948080;28;20232;-68
2023/05/13 07:23:23;;;;;;;4.97;4.57;;;13.30;99.90;;;;;;4932880;29;20713;-69
2023/05/13 07:25:51;;;;;;;4.97;4.47;;;13.90;99.90;;;;;;4950636;28;20563;-70
2023/05/13 07:28:19;;;;;;;6.05;4.90;;;13.90;99.90;;;;;;4949717;28;20267;-69
2023/05/13 07:30:45;;;;;;;5.30;4.80;;;14.00;99.90;;;;;;4929565;28;20712;-68
2023/05/13 07:33:11;;;;;;;4.00;3.70;;;14.00;99.90;;;;;;4931798;29;20216;-67
2023/05/13 07:35:37;;;;;;;5.43;4.00;;;14.00;99.90;;;;;;4930561;29;20449;-67
2023/05/13 07:38:03;;;;;;;7.37;4.50;;;14.20;99.90;;;;;;4947244;28;20452;-69
2023/05/13 07:40:28;;;;;;;5.38;4.88;;;13.90;99.90;;;;;;4945257;28;20264;-68
2023/05/13 07:42:54;;;;;;;6.00;5.50;;;14.30;99.90;;;;;;4946392;28;20193;-69
2023/05/13 07:45:20;;;;;;;5.53;4.53;;;14.60;99.90;;;;;;4950503;28;20212;-68
2023/05/13 07:47:46;;;;;;;4.97;4.43;;;14.70;99.90;;;;;;4949727;28;20212;-68
2023/05/13 07:50:11;;;;;;;5.87;5.13;;;14.80;99.90;;;;;;4948228;28;20236;-67
2023/05/13 07:52:47;;;;;;;5.87;4.33;;;15.00;99.90;;;;;;4946455;28;20189;-68
2023/05/13 07:55:21;;;;;;;12.35;11.10;;;15.00;99.90;;;;;;4948891;28;20268;-67
2023/05/13 07:57:47;;;;;;;4.60;4.20;;;15.10;99.90;;;;;;4928944;29;20628;-67
2023/05/13 08:00:14;;;;;;;5.00;4.50;;;14.80;99.90;;;;;;4948423;28;20216;-68
2023/05/13 08:02:42;;;;;;;5.07;4.47;;;15.00;99.90;;;;;;4945984;28;20193;-68
2023/05/13 08:05:08;;;;;;;4.93;4.30;;;15.20;99.90;;;;;;4949604;28;20237;-68
2023/05/13 08:07:34;;;;;;;4.70;4.32;;;15.30;99.90;;;;;;4948259;29;20277;-69
2023/05/13 08:09:59;;;;;;;4.97;4.57;;;15.10;99.90;;;;;;4932478;28;20544;-70
2023/05/13 08:12:31;;;;;;;5.40;4.90;;;15.00;99.90;;;;;;4948235;28;20256;-68
2023/05/13 08:15:03;;;;;;;4.55;4.25;;;14.90;99.90;;;;;;4945629;28;20188;-66
2023/05/13 08:17:30;;;;;;;4.63;4.22;;;14.90;99.90;;;;;;4928961;29;20609;-67
2023/05/13 08:19:55;;;;;;;4.17;3.87;;;15.00;99.90;;;;;;4945530;28;20202;-68
2023/05/13 08:22:21;;;;;;;4.53;4.13;;;14.90;99.90;;;;;;4945194;28;20189;-67
2023/05/13 08:24:47;;;;;;;4.73;4.30;;;15.00;99.90;;;;;;4946651;28;20670;-68
2023/05/13 08:27:12;;;;;;;4.53;4.13;;;15.10;99.90;;;;;;4949160;28;20199;-66
2023/05/13 08:29:38;;;;;;;5.20;4.80;;;;;;;;;;4947801;28;20192;-65
2023/05/13 08:32:11;;;;;;;5.05;4.65;;;14.70;99.90;;;;;;4932405;28;20701;-68
2023/05/13 08:34:46;;;;;;;4.70;4.25;;;14.80;99.90;;;;;;4934279;29;20184;-68
2023/05/13 08:37:12;;;;;;;5.30;4.28;;;15.00;99.90;;;;;;4927327;29;20189;-68
2023/05/13 08:39:38;;;;;;;5.30;4.80;;;;;;;;;;4943405;28;20646;-68
2023/05/13 08:42:07;;;;;;;6.10;4.27;;;15.20;99.90;;;;;;4945303;28;20193;-67
2023/05/13 08:44:38;;;;;;;5.72;5.05;;;15.40;99.90;;;;;;4943509;28;20469;-68
2023/05/13 08:47:13;;;;;;;4.82;4.43;;;15.50;99.90;;;;;;4942866;28;20189;-69
2023/05/13 08:49:39;;;;;;;5.60;4.05;;;15.30;99.90;;;;;;4943278;28;20211;-68
2023/05/13 08:52:06;;;;;;;5.90;4.80;;;15.20;99.90;;;;;;4924096;28;20503;-69
2023/05/13 08:54:33;;;;;;;4.93;4.53;;;15.00;99.90;;;;;;4946231;28;20436;-68
2023/05/13 08:56:59;;;;;;;4.68;4.28;;;14.90;99.90;;;;;;4949237;28;20207;-68
2023/05/13 08:59:24;;;;;;;4.80;4.30;;;14.70;99.90;;;;;;4949051;29;20601;-69
2023/05/13 09:01:52;;;;;;;4.47;4.17;;;14.20;99.90;;;;;;4930839;29;20279;-69
2023/05/13 09:04:18;;;;;;;5.25;4.75;;;14.60;99.90;;;;;;4931618;28;20208;-68
2023/05/13 09:06:47;;;;;;;5.20;4.80;;;14.50;99.90;;;;;;4946194;28;20319;-68
2023/05/13 09:09:12;;;;;;;5.47;5.00;;;14.60;99.90;;;;;;4946357;28;20567;-68
2023/05/13 09:11:39;;;;;;;5.93;5.40;;;14.10;99.90;;;;;;4948965;28;20205;-68
2023/05/13 09:14:06;;;;;;;5.05;4.60;;;14.40;99.90;;;;;;4947966;28;20504;-69
2023/05/13 09:16:32;;;;;;;4.45;4.15;;;14.30;99.90;;;;;;4940460;28;20225;-68
2023/05/13 09:18:59;;;;;;;5.35;4.95;;;14.50;99.90;;;;;;4948897;28;20549;-68
2023/05/13 09:21:27;;;;;;;5.30;4.90;;;14.70;99.90;;;;;;4946959;28;20283;-68
2023/05/13 09:24:01;;;;;;;5.90;5.13;;;14.60;99.90;;;;;;4930601;28;20211;-68
2023/05/13 09:26:30;;;;;;;5.55;4.00;;;14.50;99.90;;;;;;4930664;29;20266;-68
2023/05/13 09:29:21;;;;;;;4.45;4.05;;;14.70;99.90;;;;;;4947533;28;21475;-68
2023/05/13 09:31:58;;;;;;;4.65;4.25;;;14.60;99.90;;;;;;4926588;28;20201;-68
2023/05/13 09:34:34;;;;;;;4.45;4.15;;;14.60;99.90;;;;;;4947914;28;20255;-68
2023/05/13 09:37:07;;;;;;;9.05;4.72;;;14.60;99.90;;;;;;4929671;29;20694;-68
2023/05/13 09:39:38;;;;;;;4.07;3.78;;;14.80;99.90;;;;;;4947778;29;20247;-68
2023/05/13 09:42:05;;;;;;;4.28;3.90;;;15.10;99.90;;;;;;4947856;28;20236;-67
2023/05/13 09:44:31;;;;;;;3.80;3.50;;;15.30;99.90;;;;;;4947946;28;20218;-68
2023/05/13 09:46:57;;;;;;;4.72;4.22;;;15.50;99.90;;;;;;4948005;28;20267;-68
2023/05/13 09:49:25;;;;;;;4.10;3.80;;;15.60;99.90;;;;;;4930874;29;20181;-67
2023/05/13 09:51:51;;;;;;;3.80;3.50;;;15.40;99.90;;;;;;4944041;28;20745;-67
2023/05/13 09:54:16;;;;;;;4.03;3.73;;;15.60;99.90;;;;;;4945757;28;20189;-68
2023/05/13 09:56:42;;;;;;;4.13;3.73;;;15.80;99.90;;;;;;4945247;28;20674;-68
2023/05/13 09:59:08;;;;;;;5.40;4.90;;;15.50;99.90;;;;;;4948288;28;20251;-68
2023/05/13 10:01:38;;;;;;;4.53;4.13;;;15.90;99.90;;;;;;4945704;28;20208;-68
2023/05/13 10:04:05;;;;;;;4.47;4.18;;;15.70;99.90;;;;;;4928765;28;20846;-68
2023/05/13 10:06:30;;;;;;;4.43;4.13;;;15.80;99.90;;;;;;4942930;28;20225;-70
2023/05/13 10:08:59;;;;;;;4.90;3.97;;;15.80;99.90;;;;;;4927901;28;20185;-67
2023/05/13 10:11:26;;;;;;;3.95;3.65;;;15.80;99.90;;;;;;4944785;28;20468;-67
2023/05/13 10:14:01;;;;;;;4.28;3.92;;;15.80;99.90;;;;;;4944141;28;20223;-69
2023/05/13 10:16:28;;;;;;;4.45;3.67;;;16.20;99.90;;;;;;4926743;29;20729;-71
2023/05/13 10:18:57;;;;;;;5.95;4.07;;;16.30;99.90;;;;;;4928929;29;20197;-72
2023/05/13 10:21:24;;;;;;;6.68;4.30;;;15.70;99.90;;;;;;4927462;29;20224;-70
2023/05/13 10:23:51;;;;;;;3.88;3.65;;;16.00;99.90;;;;;;4926557;28;20181;-67
2023/05/13 10:26:17;;;;;;;5.00;4.18;;;16.40;99.90;;;;;;4946151;28;20648;-70
2023/05/13 10:28:45;;;;;;;4.88;4.47;;;16.40;99.90;;;;;;4943736;28;20195;-69
2023/05/13 10:31:10;;;;;;;5.13;4.72;;;16.20;99.90;;;;;;4946122;28;20280;-69
2023/05/13 10:33:36;;;;;;;5.20;4.70;;;16.40;99.90;;;;;;4948797;28;20714;-68
2023/05/13 10:36:30;;;;;;;3.90;3.50;;;16.50;99.90;;;;;;4945316;28;20268;-69
2023/05/13 10:39:23;;;;;;;4.05;3.75;;;16.60;99.50;;;;;;4945025;28;20612;-71
2023/05/13 10:41:57;;;;;;;4.95;4.50;;;16.90;99.50;;;;;;4928396;28;20217;-74
2023/05/13 10:44:23;;;;;;;5.20;3.25;;;16.50;99.20;;;;;;4928072;28;20192;-71
2023/05/13 10:46:49;;;;;;;3.50;3.20;;;16.70;99.20;;;;;;4947596;28;20557;-71
2023/05/13 10:49:15;;;;;;;3.83;3.55;;;16.70;99.90;;;;;;4947477;28;20304;-72
2023/05/13 10:51:48;;;;;;;4.10;3.80;;;16.40;99.70;;;;;;4946158;28;20300;-71
2023/05/13 10:54:19;;;;;;;4.93;4.13;;;16.50;99.90;;;;;;4946050;28;20536;-73
2023/05/13 10:56:44;;;;;;;5.25;3.95;;;16.10;99.90;;;;;;4941747;28;20193;-70
2023/05/13 10:59:11;;;;;;;6.87;6.30;;;16.00;99.90;;;;;;4929076;28;20207;-71
2023/05/13 11:01:45;;;;;;;7.43;6.72;;;16.30;99.90;;;;;;4943421;28;20728;-68
2023/05/13 11:04:19;;;;;;;6.05;5.45;;;16.00;99.90;;;;;;4929691;29;20176;-73
2023/05/13 11:06:47;;;;;;;4.70;4.30;;;16.00;99.90;;;;;;4927540;29;20295;-70
2023/05/13 11:09:34;;;;;;;5.03;4.63;;;15.60;99.90;;;;;;4942113;28;20667;-73
2023/05/13 11:12:00;;;;;;;4.82;4.35;;;16.00;99.90;;;;;;4945856;28;20208;-70
2023/05/13 11:14:26;;;;;;;5.15;4.75;;;15.90;99.90;;;;;;4944750;28;20805;-70
2023/05/13 11:17:01;;;;;;;5.82;5.22;;;16.00;99.90;;;;;;4946468;28;20192;-73
2023/05/13 11:19:27;;;;;;;5.72;5.13;;;16.00;99.90;;;;;;4930307;29;20200;-75
2023/05/13 11:22:03;;;;;;;6.95;5.20;;;16.30;99.90;;;;;;4924092;29;20498;-72
2023/05/13 11:24:28;;;;;;;5.50;5.10;;;16.50;99.90;;;;;;4952334;28;20204;-67
2023/05/13 11:26:56;;;;;;;7.90;6.90;;;16.20;99.90;;;;;;4937883;29;20760;-67
2023/05/13 11:29:30;;;;;;;5.07;4.68;;;16.00;99.90;;;;;;4950844;28;20188;-68
2023/05/13 11:31:57;;;;;;;8.70;7.97;;;16.40;99.90;;;;;;4925442;28;20359;-67
2023/05/13 11:34:23;;;;;;;5.00;4.60;;;16.40;99.90;;;;;;4931174;29;20184;-68
2023/05/13 11:37:02;;;;;;;5.00;4.60;;;16.50;99.90;;;;;;4945788;28;20242;-68
2023/05/13 11:39:28;;;;;;;4.32;4.03;;;16.50;99.90;;;;;;4949326;28;20195;-69
2023/05/13 11:41:56;;;;;;;4.40;4.10;;;16.50;99.90;;;;;;4946765;28;20318;-68
2023/05/13 11:44:23;;;;;;;4.55;3.97;;;16.40;99.90;;;;;;4932865;29;20449;-68
2023/05/13 11:46:57;;;;;;;6.53;4.20;;;16.50;99.90;;;;;;4948801;28;20216;-70
2023/05/13 11:49:34;;;;;;;5.50;3.95;;;16.60;99.90;;;;;;4948489;28;20272;-67
2023/05/13 11:52:07;;;;;;;4.78;4.30;;;16.20;99.90;;;;;;4948674;28;20200;-68
2023/05/13 11:54:42;;;;;;;4.70;4.13;;;16.20;99.90;;;;;;4950796;28;20642;-70
2023/05/13 11:57:31;;;;;;;4.65;4.25;;;16.30;99.90;;;;;;4951202;28;20788;-70
2023/05/13 12:00:03;;;;;;;4.80;4.40;;;16.60;99.90;;;;;;4930596;28;20205;-71
2023/05/13 12:02:43;;;;;;;5.45;4.95;;;16.40;99.90;;;;;;4929705;29;20267;-70
2023/05/13 12:05:10;;;;;;;5.45;4.95;;;16.30;99.90;;;;;;4946741;28;20204;-70
2023/05/13 12:07:37;;;;;;;5.05;4.60;;;16.50;99.90;;;;;;4927525;29;20185;-71
2023/05/13 12:10:04;;;;;;;5.47;4.97;;;16.60;99.90;;;;;;4947770;28;20634;-68
2023/05/13 12:12:33;;;;;;;4.68;4.28;;;16.30;99.90;;;;;;4929880;28;20189;-71
2023/05/13 12:15:01;;;;;;;4.88;4.45;;;16.40;99.90;;;;;;4929745;28;20189;-70
2023/05/13 12:17:26;;;;;;;4.90;4.50;;;16.70;99.90;;;;;;4947043;29;20226;-72
2023/05/13 12:20:06;;;;;;;6.10;4.40;;;16.60;99.90;;;;;;4931140;28;20254;-72
2023/05/13 12:22:41;;;;;;;4.93;4.50;;;16.70;99.90;;;;;;4930507;29;20187;-66
2023/05/13 12:25:34;;;;;;;4.40;4.00;;;17.00;99.80;;;;;;4947405;28;20216;-69
2023/05/13 12:28:19;;;;;;;8.73;4.65;;;16.60;98.90;;;;;;4949687;28;20185;-65
2023/05/13 12:30:53;;;;;;;4.38;3.97;;;16.90;99.00;;;;;;4949393;28;20387;-66
2023/05/13 12:33:30;;;;;;;4.32;3.92;;;16.80;99.30;;;;;;4949241;28;20199;-67
2023/05/13 12:36:24;;;;;;;4.90;4.50;;;16.90;98.80;;;;;;4928745;29;20201;-67
2023/05/13 12:39:00;;;;;;;4.03;3.67;;;16.90;98.90;;;;;;4948857;28;20283;-67
2023/05/13 12:41:37;;;;;;;3.88;3.58;;;17.10;98.20;;;;;;4947114;28;20271;-67
2023/05/13 12:44:13;;;;;;;6.90;5.45;;;17.20;98.50;;;;;;4946930;28;20614;-67
2023/05/13 12:46:52;;;;;;;5.55;5.05;;;17.50;97.90;;;;;;4928695;28;20208;-65
2023/05/13 12:49:18;;;;;;;6.45;4.93;;;17.40;97.70;;;;;;4947750;28;20597;-66
2023/05/13 12:51:43;;;;;;;6.30;4.80;;;17.30;98.00;;;;;;4950866;28;20252;-67